Time;durP1;ratioP1;P1;durP2;ratioP2;P2;SDS_P1;SDS_P2;PMS_P1;PMS_P2;Temp;Humidity;BMP_temperature;BMP_pressure;BME280_temperature;BME280_humidity;BME280_pressure;Samples;Min_cycle;Max_cycle;Signal;HPM_P1;HPM_P2
2023/10/06 00:01:00;;;;;;;9.32;1.75;;;19.20;44.50;;;;;;5073782;28;20242;-53
2023/10/06 00:03:10;;;;;;;14.50;2.75;;;19.20;44.50;;;;;;5072129;28;20224;-50
2023/10/06 00:05:40;;;;;;;8.30;1.90;;;19.20;44.90;;;;;;5071972;28;20165;-52
2023/10/06 00:08:17;;;;;;;9.00;2.03;;;;;;;;;;5072739;28;20207;-51
2023/10/06 00:10:51;;;;;;;11.25;2.58;;;19.10;44.70;;;;;;5072850;28;20206;-50
2023/10/06 00:13:28;;;;;;;10.77;2.05;;;19.10;44.60;;;;;;5072555;28;20175;-51
2023/10/06 00:15:55;;;;;;;14.98;3.90;;;19.10;44.60;;;;;;5072519;28;20678;-51
2023/10/06 00:18:23;;;;;;;12.02;2.28;;;19.10;44.60;;;;;;5072688;28;20201;-51
2023/10/06 00:20:50;;;;;;;9.40;2.05;;;19.10;44.70;;;;;;5072533;28;20210;-50
2023/10/06 00:23:23;;;;;;;8.55;1.92;;;19.10;45.10;;;;;;5071164;28;20172;-52
2023/10/06 00:25:55;;;;;;;6.07;1.67;;;19.00;44.70;;;;;;5072899;28;20187;-50
2023/10/06 00:28:28;;;;;;;9.90;2.03;;;19.00;45.00;;;;;;5072452;28;20204;-50
2023/10/06 00:30:56;;;;;;;9.30;2.15;;;18.90;45.20;;;;;;5072933;28;20255;-51
2023/10/06 00:33:32;;;;;;;10.57;2.15;;;;;;;;;;5072472;28;20196;-49
2023/10/06 00:35:58;;;;;;;10.07;2.40;;;18.90;45.40;;;;;;5072668;28;20216;-51
2023/10/06 00:38:24;;;;;;;8.20;1.65;;;18.90;45.30;;;;;;5072324;28;20196;-51
2023/10/06 00:40:52;;;;;;;9.73;1.97;;;18.90;45.40;;;;;;5072052;28;20176;-51
2023/10/06 00:43:34;;;;;;;8.50;1.75;;;18.90;45.80;;;;;;5071922;28;20175;-49
2023/10/06 00:46:06;;;;;;;9.82;1.88;;;18.80;45.80;;;;;;5072383;28;20183;-52
2023/10/06 00:48:34;;;;;;;6.18;1.30;;;18.80;45.40;;;;;;5072242;28;20200;-52
2023/10/06 00:51:04;;;;;;;13.23;2.10;;;18.80;45.70;;;;;;5072050;28;20173;-51
2023/10/06 00:53:33;;;;;;;10.52;1.75;;;18.80;45.70;;;;;;5071897;28;20673;-53
2023/10/06 00:56:08;;;;;;;6.28;1.10;;;18.90;45.70;;;;;;5072068;28;20598;-50
2023/10/06 00:58:35;;;;;;;18.58;3.17;;;18.80;46.00;;;;;;5071927;28;20188;-50
2023/10/06 01:01:05;;;;;;;11.95;3.00;;;;;;;;;;5071969;28;20207;-52
2023/10/06 01:03:38;;;;;;;12.35;3.38;;;18.80;45.80;;;;;;5071718;28;20212;-50
2023/10/06 01:06:14;;;;;;;8.43;1.85;;;18.80;45.20;;;;;;5072227;28;20227;-50
2023/10/06 01:08:52;;;;;;;12.98;1.98;;;18.90;45.00;;;;;;5071294;28;20208;-52
2023/10/06 01:11:20;;;;;;;9.93;1.92;;;18.80;44.90;;;;;;5077449;28;20192;-49
2023/10/06 01:14:21;;;;;;;9.45;2.05;;;;;;;;;;5082047;28;20532;-53
2023/10/06 01:16:38;;;;;;;10.25;2.10;;;18.80;43.90;;;;;;5071048;28;20203;-53
2023/10/06 01:19:26;;;;;;;10.87;2.40;;;;;;;;;;5072062;28;20678;-50
2023/10/06 01:21:53;;;;;;;12.85;3.05;;;18.90;44.00;;;;;;5072062;28;20207;-50
2023/10/06 01:24:26;;;;;;;10.50;1.83;;;;;;;;;;5071539;28;20180;-49
2023/10/06 01:27:00;;;;;;;12.20;2.60;;;;;;;;;;5071577;28;20176;-53
2023/10/06 01:29:30;;;;;;;11.13;1.70;;;;;;;;;;5071693;28;20609;-50
2023/10/06 01:31:57;;;;;;;12.10;3.03;;;18.90;43.60;;;;;;5082673;28;20176;-48
2023/10/06 01:34:24;;;;;;;12.05;2.28;;;18.90;43.90;;;;;;5085108;28;20536;-51
2023/10/06 01:36:53;;;;;;;12.52;2.15;;;19.00;43.80;;;;;;5071617;28;20260;-50
2023/10/06 01:39:22;;;;;;;14.38;2.53;;;;;;;;;;5071269;28;20196;-54
2023/10/06 01:41:49;;;;;;;10.35;1.67;;;19.00;43.90;;;;;;5071437;28;20177;-53
2023/10/06 01:44:17;;;;;;;10.85;1.95;;;19.00;43.80;;;;;;5071314;28;20211;-50
2023/10/06 01:46:44;;;;;;;12.10;2.10;;;;;;;;;;5071727;28;20183;-51
2023/10/06 01:49:10;;;;;;;10.82;2.65;;;18.90;44.10;;;;;;5071891;28;20195;-51
2023/10/06 01:51:38;;;;;;;14.02;2.80;;;18.90;44.10;;;;;;5071664;28;20180;-52
2023/10/06 01:54:12;;;;;;;12.32;2.42;;;;;;;;;;5071884;28;20185;-49
2023/10/06 01:56:44;;;;;;;13.65;2.40;;;19.00;44.30;;;;;;5072118;28;20370;-48
2023/10/06 01:59:10;;;;;;;10.90;2.80;;;;;;;;;;5064455;28;20201;-51
2023/10/06 02:01:40;;;;;;;10.98;1.77;;;19.00;44.30;;;;;;5071812;28;20180;-52
2023/10/06 02:04:14;;;;;;;12.48;1.80;;;;;;;;;;5070829;28;20196;-48
2023/10/06 02:06:44;;;;;;;12.60;2.80;;;19.00;44.20;;;;;;5071365;28;20231;-51
2023/10/06 02:09:18;;;;;;;9.32;2.60;;;19.00;44.10;;;;;;5071167;28;20706;-51
2023/10/06 02:11:44;;;;;;;11.32;2.28;;;;;;;;;;5071369;28;20204;-52
2023/10/06 02:14:12;;;;;;;11.23;1.80;;;19.00;44.20;;;;;;5071034;28;20263;-50
2023/10/06 02:16:38;;;;;;;14.82;2.33;;;;;;;;;;5071038;28;20185;-50
2023/10/06 02:19:08;;;;;;;8.63;1.92;;;;;;;;;;5091801;28;20192;-49
2023/10/06 02:21:45;;;;;;;8.35;1.65;;;;;;;;;;5083546;28;20230;-53
2023/10/06 02:24:12;;;;;;;9.70;1.67;;;19.10;43.40;;;;;;5063809;28;20173;-50
2023/10/06 02:26:39;;;;;;;9.43;2.00;;;;;;;;;;5071272;28;20177;-49
2023/10/06 02:29:24;;;;;;;10.80;2.40;;;;;;;;;;5073042;28;20187;-51
2023/10/06 02:31:51;;;;;;;10.73;1.75;;;;;;;;;;5074683;28;20694;-48
2023/10/06 02:34:29;;;;;;;9.95;1.85;;;19.10;42.90;;;;;;5074524;28;20180;-52
2023/10/06 02:36:56;;;;;;;9.23;2.35;;;19.10;42.90;;;;;;5074744;28;20176;-49
2023/10/06 02:39:26;;;;;;;13.35;1.90;;;19.10;43.10;;;;;;5074592;28;20690;-50
2023/10/06 02:41:57;;;;;;;10.18;2.05;;;19.10;42.90;;;;;;5074752;28;20582;-51
2023/10/06 02:44:24;;;;;;;11.68;2.70;;;19.10;43.10;;;;;;5074739;28;20172;-51
2023/10/06 02:46:53;;;;;;;8.57;1.35;;;19.20;42.80;;;;;;5074606;28;20173;-49
2023/10/06 02:49:31;;;;;;;10.05;1.55;;;;;;;;;;5074492;28;20192;-49
2023/10/06 02:52:00;;;;;;;9.63;2.13;;;19.10;43.00;;;;;;5074315;28;20210;-51
2023/10/06 02:54:29;;;;;;;12.80;2.20;;;19.10;42.80;;;;;;5074743;28;20180;-51
2023/10/06 02:56:55;;;;;;;13.93;2.10;;;;;;;;;;5074841;28;20173;-48
2023/10/06 02:59:25;;;;;;;10.23;1.98;;;19.10;42.90;;;;;;5074110;28;20277;-51
2023/10/06 03:01:54;;;;;;;13.82;2.33;;;19.10;43.10;;;;;;5074300;28;20605;-51
2023/10/06 03:04:26;;;;;;;10.10;2.28;;;19.00;43.00;;;;;;5074336;28;20188;-48
2023/10/06 03:06:53;;;;;;;7.93;1.77;;;19.10;43.30;;;;;;5074573;28;20180;-49
2023/10/06 03:09:29;;;;;;;20.30;2.75;;;;;;;;;;5073104;28;20734;-52
2023/10/06 03:11:58;;;;;;;11.52;1.80;;;19.10;43.60;;;;;;5074130;28;20305;-50
2023/10/06 03:14:37;;;;;;;9.15;2.15;;;19.00;43.80;;;;;;5073662;28;20177;-50
2023/10/06 03:17:06;;;;;;;11.40;1.90;;;19.10;43.60;;;;;;5073790;28;20259;-51
2023/10/06 03:19:33;;;;;;;8.85;1.65;;;19.10;43.90;;;;;;5072740;28;20192;-51
2023/10/06 03:22:04;;;;;;;11.82;2.28;;;19.10;43.60;;;;;;5073826;28;20638;-51
2023/10/06 03:24:34;;;;;;;10.75;1.83;;;19.10;43.30;;;;;;5073787;28;20245;-51
2023/10/06 03:27:11;;;;;;;11.98;1.70;;;19.10;43.40;;;;;;5074010;28;20253;-53
2023/10/06 03:29:51;;;;;;;13.75;2.45;;;19.00;43.50;;;;;;5073690;28;20678;-52
2023/10/06 03:32:27;;;;;;;10.18;2.25;;;;;;;;;;5074191;28;20258;-53
2023/10/06 03:34:55;;;;;;;10.13;1.85;;;19.00;43.50;;;;;;5073769;28;20192;-52
2023/10/06 03:37:45;;;;;;;12.50;1.80;;;19.00;43.40;;;;;;5073769;28;20176;-51
2023/10/06 03:40:20;;;;;;;8.18;1.85;;;;;;;;;;5073548;28;20161;-53
2023/10/06 03:42:47;;;;;;;11.10;1.92;;;19.00;43.30;;;;;;5073542;28;20186;-53
2023/10/06 03:45:31;;;;;;;12.80;1.90;;;;;;;;;;5073465;28;20256;-49
2023/10/06 03:48:10;;;;;;;10.00;1.65;;;;;;;;;;5073384;28;20177;-50
2023/10/06 03:50:43;;;;;;;9.85;2.25;;;19.00;43.70;;;;;;5073302;28;20638;-49
2023/10/06 03:53:11;;;;;;;16.45;2.78;;;;;;;;;;5072940;28;20223;-50
2023/10/06 03:55:40;;;;;;;10.73;2.28;;;;;;;;;;5073021;28;20211;-48
2023/10/06 03:58:07;;;;;;;11.45;2.85;;;19.00;43.40;;;;;;5072954;28;20196;-51
2023/10/06 04:00:38;;;;;;;12.65;2.03;;;19.00;43.40;;;;;;5072955;28;20183;-53
2023/10/06 04:03:13;;;;;;;23.17;3.42;;;;;;;;;;5072895;28;20253;-51
2023/10/06 04:05:48;;;;;;;14.15;2.55;;;19.00;43.20;;;;;;5073040;28;20199;-52
2023/10/06 04:08:16;;;;;;;11.57;2.20;;;;;;;;;;5073102;28;20590;-50
2023/10/06 04:10:50;;;;;;;10.82;1.92;;;19.00;43.20;;;;;;5072927;28;20176;-50
2023/10/06 04:13:17;;;;;;;17.65;2.85;;;;;;;;;;5072465;28;20184;-52
2023/10/06 04:15:48;;;;;;;12.75;2.03;;;19.10;43.10;;;;;;5072637;28;20203;-52
2023/10/06 04:18:17;;;;;;;7.18;1.70;;;19.10;43.10;;;;;;5072565;28;20652;-50
2023/10/06 04:20:44;;;;;;;10.20;1.73;;;19.20;42.90;;;;;;5072480;28;20173;-52
2023/10/06 04:23:13;;;;;;;16.42;2.72;;;;;;;;;;5072374;28;20173;-53
2023/10/06 04:25:42;;;;;;;11.02;1.85;;;19.10;42.90;;;;;;5072548;28;20259;-52
2023/10/06 04:28:09;;;;;;;14.35;2.00;;;;;;;;;;5072394;28;20355;-52
2023/10/06 04:30:35;;;;;;;7.32;1.77;;;19.10;43.20;;;;;;5072383;28;20631;-51
2023/10/06 04:33:04;;;;;;;22.48;3.75;;;19.10;43.60;;;;;;5072177;28;20177;-52
2023/10/06 04:35:32;;;;;;;7.53;1.58;;;;;;;;;;5072728;28;20211;-51
2023/10/06 04:38:01;;;;;;;11.90;2.33;;;19.10;43.90;;;;;;5072839;28;20256;-51
2023/10/06 04:40:29;;;;;;;13.38;2.22;;;19.70;44.30;;;;;;5072490;28;20194;-52
2023/10/06 04:42:58;;;;;;;20.88;3.75;;;;;;;;;;5072469;28;20176;-53
2023/10/06 04:45:24;;;;;;;7.78;1.30;;;19.00;44.10;;;;;;5072290;28;20609;-50
2023/10/06 04:47:50;;;;;;;15.77;2.65;;;19.00;44.40;;;;;;5072475;28;20168;-51
2023/10/06 04:50:16;;;;;;;12.03;1.93;;;19.00;44.10;;;;;;5072312;28;20252;-53
2023/10/06 04:52:48;;;;;;;10.03;1.73;;;19.00;44.40;;;;;;5071727;28;20202;-50
2023/10/06 04:55:14;;;;;;;10.80;1.70;;;19.00;44.00;;;;;;5072053;28;20446;-53
2023/10/06 04:57:41;;;;;;;10.63;2.03;;;;;;;;;;5072512;28;20177;-53
2023/10/06 05:00:21;;;;;;;8.52;1.75;;;18.90;44.20;;;;;;5072348;28;20168;-51
2023/10/06 05:02:47;;;;;;;9.27;1.48;;;;;;;;;;5072287;28;20715;-53
2023/10/06 05:05:23;;;;;;;10.10;2.25;;;;;;;;;;5070840;28;20184;-51
2023/10/06 05:07:51;;;;;;;6.75;1.42;;;18.70;44.00;;;;;;5072321;28;20232;-50
2023/10/06 05:10:21;;;;;;;11.20;2.22;;;18.60;44.10;;;;;;5072352;28;20550;-50
2023/10/06 05:12:51;;;;;;;9.05;1.65;;;18.60;44.30;;;;;;5072135;28;20179;-53
2023/10/06 05:15:30;;;;;;;16.33;3.03;;;18.50;44.10;;;;;;5070947;28;20666;-53
2023/10/06 05:18:00;;;;;;;14.10;2.30;;;;;;;;;;5071973;28;20249;-50
2023/10/06 05:20:29;;;;;;;12.05;2.65;;;;;;;;;;5070663;28;20177;-53
2023/10/06 05:22:58;;;;;;;14.48;3.10;;;18.50;44.20;;;;;;5071773;28;20540;-50
2023/10/06 05:25:29;;;;;;;9.70;1.67;;;18.40;44.10;;;;;;5071919;28;20527;-51
2023/10/06 05:27:57;;;;;;;12.02;2.50;;;;;;;;;;5071864;28;20557;-53
2023/10/06 05:30:25;;;;;;;13.38;2.70;;;;;;;;;;5071814;28;20176;-53
2023/10/06 05:32:51;;;;;;;11.82;1.98;;;;;;;;;;5071560;28;20169;-49
2023/10/06 05:35:20;;;;;;;9.43;2.15;;;;;;;;;;5071625;28;20253;-51
2023/10/06 05:37:46;;;;;;;9.43;2.25;;;18.20;43.90;;;;;;5071692;28;20176;-50
2023/10/06 05:40:13;;;;;;;18.57;3.30;;;18.20;43.90;;;;;;5071744;28;20515;-51
2023/10/06 05:42:42;;;;;;;11.18;2.45;;;;;;;;;;5071623;28;20402;-53
2023/10/06 05:45:21;;;;;;;11.85;2.45;;;18.20;43.80;;;;;;5071323;28;20177;-50
2023/10/06 05:47:50;;;;;;;7.60;1.80;;;18.10;44.20;;;;;;5071528;28;20612;-51
2023/10/06 05:50:27;;;;;;;12.13;2.35;;;;;;;;;;5071640;28;20218;-55
2023/10/06 05:53:04;;;;;;;15.18;2.65;;;18.10;44.00;;;;;;5071371;28;20168;-51
2023/10/06 05:55:30;;;;;;;11.88;2.58;;;18.10;44.00;;;;;;5071357;28;20585;-51
2023/10/06 05:58:00;;;;;;;25.30;3.13;;;18.20;44.10;;;;;;5071626;28;20268;-53
2023/10/06 06:00:30;;;;;;;6.65;1.20;;;18.20;44.10;;;;;;5071356;28;20674;-52
2023/10/06 06:03:10;;;;;;;19.20;3.50;;;18.30;44.20;;;;;;5071598;28;20205;-51
2023/10/06 06:05:38;;;;;;;4.05;1.75;;;18.30;44.20;;;;;;5074175;28;20758;-54
2023/10/06 06:08:06;;;;;;;7.63;1.55;;;18.30;44.50;;;;;;5075467;28;20232;-51
2023/10/06 06:10:31;;;;;;;1.50;0.95;;;18.40;44.40;;;;;;5075261;28;20238;-56
2023/10/06 06:12:59;;;;;;;14.47;4.47;;;18.40;44.30;;;;;;5075059;28;20168;-53
2023/10/06 06:15:26;;;;;;;3.30;1.88;;;18.50;44.30;;;;;;5075183;28;20201;-51
2023/10/06 06:17:58;;;;;;;2.90;1.40;;;18.50;44.30;;;;;;5074945;28;20177;-51
2023/10/06 06:20:25;;;;;;;19.88;2.10;;;;;;;;;;5074864;28;20173;-53
2023/10/06 06:23:02;;;;;;;21.05;2.38;;;;;;;;;;5073493;28;20180;-49
2023/10/06 06:25:31;;;;;;;16.50;1.67;;;18.60;43.40;;;;;;5074992;28;20650;-50
2023/10/06 06:28:00;;;;;;;23.52;2.30;;;18.60;43.40;;;;;;5074966;28;20200;-54
2023/10/06 06:30:27;;;;;;;21.27;1.95;;;18.60;43.10;;;;;;5075181;28;20211;-52
2023/10/06 06:32:54;;;;;;;42.92;3.47;;;18.60;42.80;;;;;;5074760;28;20173;-54
2023/10/06 06:35:21;;;;;;;22.92;2.33;;;;;;;;;;5074712;28;20253;-53
2023/10/06 06:38:01;;;;;;;15.82;1.48;;;18.80;42.80;;;;;;5074747;28;20181;-51
2023/10/06 06:40:30;;;;;;;16.98;1.85;;;18.80;42.40;;;;;;5074862;28;20687;-53
2023/10/06 06:42:57;;;;;;;42.58;4.43;;;;;;;;;;5074619;28;20169;-53
2023/10/06 06:45:26;;;;;;;26.23;2.60;;;19.00;42.30;;;;;;5074815;28;20184;-50
2023/10/06 06:47:53;;;;;;;15.80;1.48;;;;;;;;;;5073310;28;20180;-55
2023/10/06 06:50:20;;;;;;;18.17;2.20;;;19.00;42.50;;;;;;5074819;28;20168;-55
2023/10/06 06:52:46;;;;;;;11.68;1.50;;;;;;;;;;5074760;28;20198;-53
2023/10/06 06:55:13;;;;;;;17.73;1.85;;;;;;;;;;5074359;28;20254;-53
2023/10/06 06:57:45;;;;;;;21.08;2.45;;;;;;;;;;5074540;28;20179;-54
2023/10/06 07:00:21;;;;;;;18.35;1.92;;;19.20;42.80;;;;;;5073239;28;20526;-55
2023/10/06 07:02:50;;;;;;;24.58;2.58;;;19.20;42.80;;;;;;5074330;28;20259;-53
2023/10/06 07:05:17;;;;;;;17.45;2.25;;;19.20;42.70;;;;;;5073932;28;20181;-54
2023/10/06 07:07:43;;;;;;;26.48;2.65;;;19.30;43.00;;;;;;5074035;28;20551;-51
2023/10/06 07:10:14;;;;;;;20.63;1.95;;;19.40;43.10;;;;;;5074151;28;20238;-51
2023/10/06 07:12:51;;;;;;;23.25;2.10;;;;;;;;;;5073980;28;20191;-55
2023/10/06 07:15:19;;;;;;;15.57;1.75;;;19.60;42.60;;;;;;5073405;28;20633;-51
2023/10/06 07:17:45;;;;;;;18.15;2.38;;;;;;;;;;5073729;28;20173;-50
2023/10/06 07:20:16;;;;;;;17.30;2.28;;;;;;;;;;5073810;28;20168;-52
2023/10/06 07:22:43;;;;;;;21.92;2.00;;;;;;;;;;5073984;28;20184;-50
2023/10/06 07:25:10;;;;;;;20.05;2.10;;;;;;;;;;5073459;28;20172;-52
2023/10/06 07:27:37;;;;;;;17.50;2.13;;;;;;;;;;5073816;28;20172;-54
2023/10/06 07:30:04;;;;;;;17.85;2.15;;;;;;;;;;5073514;28;20207;-51
2023/10/06 07:32:33;;;;;;;15.85;2.08;;;19.80;41.70;;;;;;5073674;28;20256;-50
2023/10/06 07:34:59;;;;;;;17.73;1.67;;;19.90;41.50;;;;;;5073243;28;20213;-53
2023/10/06 07:37:26;;;;;;;22.17;2.27;;;;;;;;;;5073463;28;20171;-53
2023/10/06 07:39:52;;;;;;;15.05;1.88;;;20.20;41.50;;;;;;5072222;28;20193;-50
2023/10/06 07:42:19;;;;;;;15.63;1.67;;;20.40;40.70;;;;;;5073464;28;20639;-51
2023/10/06 07:44:47;;;;;;;17.33;1.83;;;;;;;;;;5073324;28;20181;-53
2023/10/06 07:47:13;;;;;;;18.52;2.13;;;20.40;39.20;;;;;;5073351;28;20199;-53
2023/10/06 07:49:40;;;;;;;15.27;1.80;;;20.50;40.30;;;;;;5073178;28;20213;-49
2023/10/06 07:52:07;;;;;;;23.98;3.30;;;20.60;40.30;;;;;;5073069;28;20965;-54
2023/10/06 07:54:33;;;;;;;17.35;1.88;;;20.70;40.10;;;;;;5072838;28;20192;-55
2023/10/06 07:56:59;;;;;;;19.57;2.20;;;;;;;;;;5073092;28;20176;-50
2023/10/06 07:59:25;;;;;;;16.40;2.03;;;20.80;39.70;;;;;;5072951;28;20215;-51
2023/10/06 08:01:53;;;;;;;16.73;1.87;;;;;;;;;;5072975;28;20415;-53
2023/10/06 08:04:19;;;;;;;17.40;2.50;;;;;;;;;;5072615;28;20434;-50
2023/10/06 08:06:45;;;;;;;22.07;2.70;;;20.90;38.70;;;;;;5072789;28;20403;-50
2023/10/06 08:09:12;;;;;;;16.37;2.77;;;;;;;;;;5072980;28;20509;-50
2023/10/06 08:11:39;;;;;;;19.27;2.30;;;;;;;;;;5072883;28;20915;-49
2023/10/06 08:14:06;;;;;;;11.93;1.92;;;20.90;39.40;;;;;;5072783;28;20496;-54
2023/10/06 08:16:33;;;;;;;19.98;2.25;;;;;;;;;;5072735;28;20577;-52
2023/10/06 08:19:00;;;;;;;20.50;2.15;;;21.00;38.70;;;;;;5072664;28;20272;-51
2023/10/06 08:21:25;;;;;;;17.98;1.85;;;21.10;38.80;;;;;;5072772;28;20181;-50
2023/10/06 08:23:51;;;;;;;16.97;2.37;;;21.20;39.30;;;;;;5072617;28;20172;-51
2023/10/06 08:26:17;;;;;;;25.33;2.73;;;21.30;39.30;;;;;;5072048;28;20176;-52
2023/10/06 08:28:42;;;;;;;17.40;1.90;;;21.30;38.60;;;;;;5072614;28;20192;-51
2023/10/06 08:31:17;;;;;;;22.97;3.27;;;21.40;39.20;;;;;;5072589;28;20184;-51
2023/10/06 08:33:45;;;;;;;24.63;2.73;;;21.50;38.40;;;;;;5072345;28;20169;-53
2023/10/06 08:36:11;;;;;;;18.53;2.30;;;21.60;39.10;;;;;;5072800;28;20549;-50
2023/10/06 08:38:37;;;;;;;16.53;1.80;;;21.70;36.30;;;;;;5072432;28;20814;-51
2023/10/06 08:41:04;;;;;;;16.23;1.90;;;21.70;38.50;;;;;;5070949;28;20547;-53
2023/10/06 08:43:31;;;;;;;28.97;3.13;;;21.70;38.60;;;;;;5072097;28;20413;-50
2023/10/06 08:45:59;;;;;;;18.73;1.77;;;21.80;38.30;;;;;;5070973;28;20425;-51
2023/10/06 08:48:32;;;;;;;23.77;2.40;;;22.00;38.70;;;;;;5072058;28;20438;-52
2023/10/06 08:50:59;;;;;;;14.90;2.10;;;22.00;38.60;;;;;;5072089;28;20413;-52
2023/10/06 08:53:26;;;;;;;36.97;3.10;;;22.10;36.90;;;;;;5072028;28;20441;-50
2023/10/06 08:55:52;;;;;;;32.07;2.53;;;;;;;;;;5072028;28;20469;-49
2023/10/06 08:58:20;;;;;;;17.23;1.90;;;;;;;;;;5070815;28;20423;-51
2023/10/06 09:00:46;;;;;;;25.90;2.50;;;22.20;36.20;;;;;;5071959;28;20402;-51
2023/10/06 09:03:14;;;;;;;21.77;1.90;;;22.30;35.40;;;;;;5071737;28;21149;-50
2023/10/06 09:05:44;;;;;;;25.57;2.80;;;22.30;35.10;;;;;;5071988;28;20781;-49
2023/10/06 09:08:14;;;;;;;22.90;2.03;;;22.40;35.80;;;;;;5072083;28;20418;-52
2023/10/06 09:10:49;;;;;;;24.27;2.13;;;22.40;34.50;;;;;;5072109;28;20426;-52
2023/10/06 09:13:18;;;;;;;25.40;2.30;;;22.40;34.60;;;;;;5071599;28;20433;-51
2023/10/06 09:15:55;;;;;;;24.70;2.40;;;;;;;;;;5071773;28;20568;-50
2023/10/06 09:18:24;;;;;;;17.57;1.67;;;22.50;36.20;;;;;;5071850;28;20414;-50
2023/10/06 09:20:50;;;;;;;18.47;1.77;;;22.60;35.40;;;;;;5071834;28;20407;-51
2023/10/06 09:23:36;;;;;;;20.93;2.53;;;;;;;;;;5071549;28;20494;-52
2023/10/06 09:26:06;;;;;;;22.73;2.13;;;22.70;33.70;;;;;;5071666;28;20831;-50
2023/10/06 09:28:33;;;;;;;20.97;2.17;;;;;;;;;;5071819;28;20434;-52
2023/10/06 09:31:01;;;;;;;22.60;1.80;;;;;;;;;;5071813;28;20482;-51
2023/10/06 09:33:28;;;;;;;26.17;2.60;;;22.90;32.70;;;;;;5071554;28;20413;-50
2023/10/06 09:36:02;;;;;;;12.43;1.37;;;;;;;;;;5070352;28;20508;-54
2023/10/06 09:38:28;;;;;;;20.93;1.97;;;22.90;32.70;;;;;;5074521;28;20423;-51
2023/10/06 09:40:54;;;;;;;24.33;2.60;;;23.00;32.40;;;;;;5075823;28;20411;-51
2023/10/06 09:43:22;;;;;;;26.33;2.30;;;23.00;31.40;;;;;;5075692;28;20413;-50
2023/10/06 09:45:50;;;;;;;20.37;1.87;;;;;;;;;;5075631;28;20176;-53
2023/10/06 09:48:18;;;;;;;20.47;1.77;;;;;;;;;;5075468;28;20427;-51
2023/10/06 09:50:45;;;;;;;27.00;3.33;;;23.30;31.30;;;;;;5075382;28;20442;-56
2023/10/06 09:53:15;;;;;;;29.90;2.40;;;;;;;;;;5075317;28;20442;-53
2023/10/06 09:55:41;;;;;;;24.77;2.83;;;;;;;;;;5075469;28;20814;-50
2023/10/06 09:58:08;;;;;;;19.03;2.93;;;23.60;32.00;;;;;;5075355;28;20419;-52
2023/10/06 10:00:39;;;;;;;19.90;2.07;;;23.60;28.30;;;;;;5075400;28;20777;-51
2023/10/06 10:03:06;;;;;;;46.03;3.63;;;;;;;;;;5074951;28;20761;-50
2023/10/06 10:05:33;;;;;;;25.00;2.97;;;23.40;31.30;;;;;;5075437;28;20411;-51
2023/10/06 10:07:59;;;;;;;20.83;1.73;;;;;;;;;;5075137;28;20415;-52
2023/10/06 10:10:27;;;;;;;27.47;2.10;;;23.50;31.80;;;;;;5075132;28;20403;-50
2023/10/06 10:13:11;;;;;;;23.93;1.93;;;;;;;;;;5074974;28;20432;-50
2023/10/06 10:16:13;;;;;;;21.67;1.70;;;23.70;30.70;;;;;;5074866;28;20464;-51
2023/10/06 10:18:40;;;;;;;26.47;2.13;;;;;;;;;;5074544;28;20446;-51
2023/10/06 10:21:11;;;;;;;24.33;2.70;;;24.00;30.50;;;;;;5075016;28;20399;-54
2023/10/06 10:23:41;;;;;;;25.40;2.50;;;;;;;;;;5074881;28;20410;-50
2023/10/06 10:26:22;;;;;;;28.27;2.23;;;24.20;29.90;;;;;;5073561;28;20402;-53
2023/10/06 10:29:07;;;;;;;29.37;3.63;;;;;;;;;;5074737;28;20437;-50
2023/10/06 10:31:37;;;;;;;29.97;2.20;;;24.30;30.40;;;;;;5074774;28;20471;-50
2023/10/06 10:34:02;;;;;;;22.30;1.80;;;24.40;29.10;;;;;;5074528;28;20407;-49
2023/10/06 10:36:29;;;;;;;24.27;2.07;;;;;;;;;;5074529;28;20459;-53
2023/10/06 10:39:03;;;;;;;23.67;2.17;;;24.60;29.40;;;;;;5073469;28;20192;-51
2023/10/06 10:41:37;;;;;;;22.47;2.00;;;;;;;;;;5074602;28;20407;-54
2023/10/06 10:44:04;;;;;;;28.77;2.90;;;24.60;29.60;;;;;;5074533;28;20907;-50
2023/10/06 10:46:31;;;;;;;11.10;1.00;;;24.60;29.30;;;;;;5073253;28;20414;-49
2023/10/06 10:48:58;;;;;;;26.20;1.87;;;;;;;;;;5073510;28;20935;-50
2023/10/06 10:51:25;;;;;;;41.20;2.90;;;;;;;;;;5074361;28;20411;-52
2023/10/06 10:53:52;;;;;;;20.73;1.90;;;24.80;29.80;;;;;;5074113;28;20411;-51
2023/10/06 10:56:33;;;;;;;26.77;2.23;;;24.90;28.40;;;;;;5074271;28;20545;-52
2023/10/06 10:59:00;;;;;;;27.80;4.27;;;24.90;28.70;;;;;;5074203;28;20766;-50
2023/10/06 11:01:45;;;;;;;23.50;2.40;;;25.00;28.20;;;;;;5074320;28;20846;-54
2023/10/06 11:04:12;;;;;;;24.90;2.17;;;;;;;;;;5073886;28;20936;-54
2023/10/06 11:06:51;;;;;;;26.97;2.40;;;25.00;26.30;;;;;;5074205;28;20797;-53
2023/10/06 11:09:26;;;;;;;16.23;1.60;;;25.00;26.50;;;;;;5074058;28;21017;-52
2023/10/06 11:11:59;;;;;;;25.87;2.57;;;;;;;;;;5074163;28;20468;-53
2023/10/06 11:14:26;;;;;;;20.70;1.83;;;24.90;28.10;;;;;;5074003;28;20460;-55
2023/10/06 11:17:02;;;;;;;26.47;2.23;;;24.90;28.10;;;;;;5074065;28;20456;-53
2023/10/06 11:19:28;;;;;;;24.17;2.60;;;24.90;26.90;;;;;;5073756;28;20815;-51
2023/10/06 11:21:53;;;;;;;21.87;2.03;;;24.90;27.60;;;;;;5073855;28;20399;-49
2023/10/06 11:24:28;;;;;;;23.83;2.37;;;24.90;27.30;;;;;;5073598;28;20469;-53
2023/10/06 11:26:55;;;;;;;24.03;2.13;;;24.90;27.70;;;;;;5073757;28;20182;-50
2023/10/06 11:29:31;;;;;;;17.70;2.20;;;;;;;;;;5073769;28;20447;-52
2023/10/06 11:32:03;;;;;;;11.30;1.23;;;25.00;26.70;;;;;;5073612;28;20493;-53
2023/10/06 11:34:29;;;;;;;15.77;3.10;;;;;;;;;;5073453;28;20931;-51
2023/10/06 11:36:59;;;;;;;19.43;2.73;;;25.00;25.80;;;;;;5073376;28;20427;-54
2023/10/06 11:39:31;;;;;;;18.50;1.97;;;24.90;24.60;;;;;;5073430;28;20514;-51
2023/10/06 11:42:22;;;;;;;19.53;2.00;;;24.70;27.20;;;;;;5073450;28;20421;-51
2023/10/06 11:44:48;;;;;;;20.93;2.20;;;24.70;27.10;;;;;;5073169;28;20434;-52
2023/10/06 11:47:14;;;;;;;17.97;2.17;;;24.70;27.70;;;;;;5072027;28;20445;-53
2023/10/06 11:49:55;;;;;;;31.27;2.87;;;;;;;;;;5073117;28;20434;-51
2023/10/06 11:52:21;;;;;;;25.20;2.73;;;;;;;;;;5073225;28;21025;-55
2023/10/06 11:54:47;;;;;;;13.17;1.57;;;;;;;;;;5072897;28;20411;-49
2023/10/06 11:57:14;;;;;;;16.20;2.13;;;;;;;;;;5073356;28;20407;-50
2023/10/06 11:59:53;;;;;;;16.77;2.07;;;24.60;27.20;;;;;;5073047;28;20778;-53
2023/10/06 12:02:21;;;;;;;16.03;1.73;;;24.70;26.60;;;;;;5072950;28;20421;-50
2023/10/06 12:04:47;;;;;;;19.83;1.90;;;24.70;26.40;;;;;;5072603;28;20911;-50
2023/10/06 12:07:23;;;;;;;12.17;2.10;;;24.70;26.10;;;;;;5072912;28;20937;-53
2023/10/06 12:09:50;;;;;;;20.07;2.60;;;;;;;;;;5072810;28;20430;-50
2023/10/06 12:12:19;;;;;;;17.97;2.60;;;24.70;26.50;;;;;;5072641;28;20399;-55
2023/10/06 12:14:46;;;;;;;19.40;2.13;;;;;;;;;;5071186;28;20406;-54
2023/10/06 12:17:14;;;;;;;17.47;1.77;;;;;;;;;;5071546;28;20514;-51
2023/10/06 12:19:42;;;;;;;21.47;2.40;;;24.50;27.70;;;;;;5072731;28;20491;-53
2023/10/06 12:22:08;;;;;;;20.67;2.70;;;24.60;27.80;;;;;;5072619;28;21077;-55
2023/10/06 12:24:34;;;;;;;19.03;2.50;;;24.60;27.60;;;;;;5072500;28;20465;-51
2023/10/06 12:27:00;;;;;;;27.27;2.80;;;;;;;;;;5072420;28;20399;-52
2023/10/06 12:29:29;;;;;;;21.50;2.20;;;;;;;;;;5072438;28;20701;-52
2023/10/06 12:31:56;;;;;;;25.60;2.07;;;24.50;27.00;;;;;;5072414;28;20401;-52
2023/10/06 12:34:23;;;;;;;17.20;1.70;;;24.40;26.70;;;;;;5072388;28;20411;-49
2023/10/06 12:36:51;;;;;;;20.37;2.10;;;;;;;;;;5072358;28;20458;-51
2023/10/06 12:39:30;;;;;;;22.97;2.63;;;;;;;;;;5072307;28;20450;-53
2023/10/06 12:41:59;;;;;;;17.50;2.10;;;24.30;27.40;;;;;;5070958;28;20509;-51
2023/10/06 12:44:27;;;;;;;18.73;2.30;;;;;;;;;;5072208;28;20419;-50
2023/10/06 12:46:56;;;;;;;21.70;2.67;;;24.40;28.30;;;;;;5072365;28;20407;-51
2023/10/06 12:49:23;;;;;;;16.47;1.83;;;;;;;;;;5072043;28;20435;-51
2023/10/06 12:51:52;;;;;;;17.73;2.10;;;;;;;;;;5072061;28;20437;-51
2023/10/06 12:54:19;;;;;;;21.13;2.53;;;;;;;;;;5072148;28;20838;-50
2023/10/06 12:56:46;;;;;;;16.27;2.17;;;24.50;26.10;;;;;;5072059;28;20887;-55
2023/10/06 12:59:12;;;;;;;16.17;2.00;;;;;;;;;;5072010;28;20434;-53
2023/10/06 13:01:38;;;;;;;17.30;2.20;;;;;;;;;;5072071;28;20407;-50
2023/10/06 13:04:08;;;;;;;10.20;1.50;;;;;;;;;;5071785;28;20439;-55
2023/10/06 13:06:35;;;;;;;16.53;2.27;;;;;;;;;;5072030;28;20550;-50
2023/10/06 13:09:04;;;;;;;14.73;1.73;;;24.50;27.60;;;;;;5072334;28;20793;-49
2023/10/06 13:11:30;;;;;;;15.27;2.07;;;24.50;26.40;;;;;;5071760;28;20407;-52
2023/10/06 13:13:56;;;;;;;14.73;1.93;;;;;;;;;;5071697;28;20415;-50
2023/10/06 13:16:23;;;;;;;29.73;3.70;;;;;;;;;;5071830;28;20556;-53
2023/10/06 13:18:49;;;;;;;15.17;1.83;;;24.20;26.60;;;;;;5071883;28;20477;-51
2023/10/06 13:21:16;;;;;;;19.27;2.80;;;24.10;26.10;;;;;;5071754;28;20411;-52
2023/10/06 13:23:43;;;;;;;18.00;2.47;;;24.00;26.70;;;;;;5071642;28;20409;-52
2023/10/06 13:26:11;;;;;;;14.77;1.73;;;;;;;;;;5071653;28;20421;-50
2023/10/06 13:28:38;;;;;;;14.83;2.80;;;23.90;26.40;;;;;;5071788;28;20469;-50